sensor_id;sensor_type;location;lat;lon;timestamp;P1;durP1;ratioP1;P2;durP2;ratioP2
81180;SDS011;70650;51.408;7.132;2023-12-07T00:01:31;49.37;;;17.10;;
81180;SDS011;70650;51.408;7.132;2023-12-07T00:03:56;50.35;;;17.15;;
81180;SDS011;70650;51.408;7.132;2023-12-07T00:06:22;45.83;;;16.60;;
81180;SDS011;70650;51.408;7.132;2023-12-07T00:08:48;48.05;;;17.27;;
81180;SDS011;70650;51.408;7.132;2023-12-07T00:11:14;49.43;;;15.73;;
81180;SDS011;70650;51.408;7.132;2023-12-07T00:13:39;55.60;;;17.77;;
81180;SDS011;70650;51.408;7.132;2023-12-07T00:16:04;53.37;;;17.53;;
81180;SDS011;70650;51.408;7.132;2023-12-07T00:18:30;51.90;;;18.05;;
81180;SDS011;70650;51.408;7.132;2023-12-07T00:20:55;53.90;;;18.73;;
81180;SDS011;70650;51.408;7.132;2023-12-07T00:23:21;64.50;;;20.73;;
81180;SDS011;70650;51.408;7.132;2023-12-07T00:25:47;62.00;;;18.63;;
81180;SDS011;70650;51.408;7.132;2023-12-07T00:28:12;54.90;;;18.37;;
81180;SDS011;70650;51.408;7.132;2023-12-07T00:30:37;54.37;;;18.67;;
81180;SDS011;70650;51.408;7.132;2023-12-07T00:33:03;66.23;;;19.73;;
81180;SDS011;70650;51.408;7.132;2023-12-07T00:35:28;58.17;;;20.10;;
81180;SDS011;70650;51.408;7.132;2023-12-07T00:37:54;56.22;;;18.70;;
81180;SDS011;70650;51.408;7.132;2023-12-07T00:40:21;60.63;;;19.55;;
81180;SDS011;70650;51.408;7.132;2023-12-07T00:42:47;59.85;;;20.63;;
81180;SDS011;70650;51.408;7.132;2023-12-07T00:45:13;60.67;;;20.77;;
81180;SDS011;70650;51.408;7.132;2023-12-07T00:47:39;56.72;;;18.70;;
81180;SDS011;70650;51.408;7.132;2023-12-07T00:50:04;55.80;;;19.42;;
81180;SDS011;70650;51.408;7.132;2023-12-07T00:52:30;59.20;;;20.17;;
81180;SDS011;70650;51.408;7.132;2023-12-07T00:54:56;59.17;;;19.07;;
81180;SDS011;70650;51.408;7.132;2023-12-07T00:57:21;52.85;;;18.27;;
81180;SDS011;70650;51.408;7.132;2023-12-07T00:59:46;55.22;;;17.23;;
81180;SDS011;70650;51.408;7.132;2023-12-07T01:02:12;51.50;;;17.33;;
81180;SDS011;70650;51.408;7.132;2023-12-07T01:04:37;57.57;;;18.63;;
81180;SDS011;70650;51.408;7.132;2023-12-07T01:07:03;57.90;;;17.60;;
81180;SDS011;70650;51.408;7.132;2023-12-07T01:09:30;53.33;;;18.13;;
81180;SDS011;70650;51.408;7.132;2023-12-07T01:11:56;51.87;;;16.70;;
81180;SDS011;70650;51.408;7.132;2023-12-07T01:14:23;46.95;;;16.80;;
81180;SDS011;70650;51.408;7.132;2023-12-07T01:16:48;45.97;;;16.58;;
81180;SDS011;70650;51.408;7.132;2023-12-07T01:19:13;44.85;;;15.52;;
81180;SDS011;70650;51.408;7.132;2023-12-07T01:21:39;48.63;;;15.88;;
81180;SDS011;70650;51.408;7.132;2023-12-07T01:24:06;42.58;;;15.57;;
81180;SDS011;70650;51.408;7.132;2023-12-07T01:26:31;47.63;;;15.48;;
81180;SDS011;70650;51.408;7.132;2023-12-07T01:28:58;37.58;;;13.88;;
81180;SDS011;70650;51.408;7.132;2023-12-07T01:31:23;43.25;;;16.42;;
81180;SDS011;70650;51.408;7.132;2023-12-07T01:33:48;44.67;;;14.87;;
81180;SDS011;70650;51.408;7.132;2023-12-07T01:36:13;42.77;;;14.47;;
81180;SDS011;70650;51.408;7.132;2023-12-07T01:38:39;41.07;;;14.50;;
81180;SDS011;70650;51.408;7.132;2023-12-07T01:41:05;42.90;;;14.68;;
81180;SDS011;70650;51.408;7.132;2023-12-07T01:43:30;38.90;;;13.97;;
81180;SDS011;70650;51.408;7.132;2023-12-07T01:45:56;45.40;;;14.50;;
81180;SDS011;70650;51.408;7.132;2023-12-07T01:48:23;38.70;;;14.30;;
81180;SDS011;70650;51.408;7.132;2023-12-07T01:50:51;37.95;;;13.52;;
81180;SDS011;70650;51.408;7.132;2023-12-07T01:53:18;43.55;;;13.48;;
81180;SDS011;70650;51.408;7.132;2023-12-07T01:55:45;41.58;;;14.73;;
81180;SDS011;70650;51.408;7.132;2023-12-07T01:58:12;44.63;;;14.98;;
81180;SDS011;70650;51.408;7.132;2023-12-07T02:00:37;37.05;;;13.77;;
81180;SDS011;70650;51.408;7.132;2023-12-07T02:03:04;39.03;;;14.18;;
81180;SDS011;70650;51.408;7.132;2023-12-07T02:05:30;41.72;;;14.13;;
81180;SDS011;70650;51.408;7.132;2023-12-07T02:07:56;37.30;;;13.23;;
81180;SDS011;70650;51.408;7.132;2023-12-07T02:10:22;39.53;;;12.90;;
81180;SDS011;70650;51.408;7.132;2023-12-07T02:12:47;41.37;;;14.07;;
81180;SDS011;70650;51.408;7.132;2023-12-07T02:15:13;38.50;;;12.35;;
81180;SDS011;70650;51.408;7.132;2023-12-07T02:17:50;33.83;;;13.77;;
81180;SDS011;70650;51.408;7.132;2023-12-07T02:23:03;38.72;;;12.68;;
81180;SDS011;70650;51.408;7.132;2023-12-07T02:25:37;37.25;;;12.43;;
81180;SDS011;70650;51.408;7.132;2023-12-07T02:28:09;34.47;;;12.15;;
81180;SDS011;70650;51.408;7.132;2023-12-07T02:30:34;37.53;;;11.15;;
81180;SDS011;70650;51.408;7.132;2023-12-07T02:33:00;35.00;;;11.70;;
81180;SDS011;70650;51.408;7.132;2023-12-07T02:35:25;36.90;;;12.98;;
81180;SDS011;70650;51.408;7.132;2023-12-07T02:37:51;37.97;;;12.43;;
81180;SDS011;70650;51.408;7.132;2023-12-07T02:40:18;40.28;;;13.43;;
81180;SDS011;70650;51.408;7.132;2023-12-07T02:42:49;35.88;;;11.50;;
81180;SDS011;70650;51.408;7.132;2023-12-07T02:45:15;32.20;;;11.57;;
81180;SDS011;70650;51.408;7.132;2023-12-07T02:47:40;36.97;;;11.65;;
81180;SDS011;70650;51.408;7.132;2023-12-07T02:50:08;37.97;;;12.15;;
81180;SDS011;70650;51.408;7.132;2023-12-07T02:52:34;34.80;;;11.25;;
81180;SDS011;70650;51.408;7.132;2023-12-07T02:54:59;36.13;;;12.05;;
81180;SDS011;70650;51.408;7.132;2023-12-07T02:57:25;39.40;;;11.85;;
81180;SDS011;70650;51.408;7.132;2023-12-07T02:59:50;34.07;;;12.07;;
81180;SDS011;70650;51.408;7.132;2023-12-07T03:02:16;37.47;;;12.83;;
81180;SDS011;70650;51.408;7.132;2023-12-07T03:04:41;35.77;;;11.33;;
81180;SDS011;70650;51.408;7.132;2023-12-07T03:07:06;34.67;;;11.17;;
81180;SDS011;70650;51.408;7.132;2023-12-07T03:09:32;32.95;;;10.65;;
81180;SDS011;70650;51.408;7.132;2023-12-07T03:11:57;36.83;;;11.33;;
81180;SDS011;70650;51.408;7.132;2023-12-07T03:14:22;32.70;;;10.43;;
81180;SDS011;70650;51.408;7.132;2023-12-07T03:16:48;34.00;;;10.60;;
81180;SDS011;70650;51.408;7.132;2023-12-07T03:19:13;36.17;;;11.30;;
81180;SDS011;70650;51.408;7.132;2023-12-07T03:21:39;33.00;;;11.20;;
81180;SDS011;70650;51.408;7.132;2023-12-07T03:24:06;35.33;;;10.57;;
81180;SDS011;70650;51.408;7.132;2023-12-07T03:26:32;37.83;;;12.35;;
81180;SDS011;70650;51.408;7.132;2023-12-07T03:28:57;32.73;;;10.77;;
81180;SDS011;70650;51.408;7.132;2023-12-07T03:31:23;35.73;;;11.40;;
81180;SDS011;70650;51.408;7.132;2023-12-07T03:33:48;42.50;;;11.63;;
81180;SDS011;70650;51.408;7.132;2023-12-07T03:36:13;32.50;;;11.15;;
81180;SDS011;70650;51.408;7.132;2023-12-07T03:38:39;33.90;;;11.07;;
81180;SDS011;70650;51.408;7.132;2023-12-07T03:41:04;36.20;;;11.67;;
81180;SDS011;70650;51.408;7.132;2023-12-07T03:43:29;34.78;;;11.13;;
81180;SDS011;70650;51.408;7.132;2023-12-07T03:45:54;31.77;;;11.67;;
81180;SDS011;70650;51.408;7.132;2023-12-07T03:48:20;32.00;;;10.70;;
81180;SDS011;70650;51.408;7.132;2023-12-07T03:50:45;39.73;;;12.40;;
81180;SDS011;70650;51.408;7.132;2023-12-07T03:53:10;36.70;;;10.50;;
81180;SDS011;70650;51.408;7.132;2023-12-07T03:55:36;38.30;;;11.32;;
81180;SDS011;70650;51.408;7.132;2023-12-07T03:58:02;42.67;;;11.73;;
81180;SDS011;70650;51.408;7.132;2023-12-07T04:00:27;38.75;;;10.43;;
81180;SDS011;70650;51.408;7.132;2023-12-07T04:02:53;36.40;;;10.77;;
81180;SDS011;70650;51.408;7.132;2023-12-07T04:05:18;41.40;;;11.77;;
81180;SDS011;70650;51.408;7.132;2023-12-07T04:07:43;41.27;;;12.73;;
81180;SDS011;70650;51.408;7.132;2023-12-07T04:10:08;32.97;;;10.07;;
81180;SDS011;70650;51.408;7.132;2023-12-07T04:12:34;33.45;;;11.52;;
81180;SDS011;70650;51.408;7.132;2023-12-07T04:14:59;33.43;;;10.47;;
81180;SDS011;70650;51.408;7.132;2023-12-07T04:17:25;34.20;;;10.05;;
81180;SDS011;70650;51.408;7.132;2023-12-07T04:19:50;32.03;;;10.13;;
81180;SDS011;70650;51.408;7.132;2023-12-07T04:22:15;32.03;;;9.63;;
81180;SDS011;70650;51.408;7.132;2023-12-07T04:24:41;32.57;;;10.10;;
81180;SDS011;70650;51.408;7.132;2023-12-07T04:27:06;24.88;;;8.73;;
81180;SDS011;70650;51.408;7.132;2023-12-07T04:29:31;30.40;;;10.23;;
81180;SDS011;70650;51.408;7.132;2023-12-07T04:31:57;27.45;;;9.43;;
81180;SDS011;70650;51.408;7.132;2023-12-07T04:34:22;31.03;;;9.77;;
81180;SDS011;70650;51.408;7.132;2023-12-07T04:36:47;28.83;;;9.27;;
81180;SDS011;70650;51.408;7.132;2023-12-07T04:39:14;25.48;;;8.90;;
81180;SDS011;70650;51.408;7.132;2023-12-07T04:41:39;34.28;;;10.50;;
81180;SDS011;70650;51.408;7.132;2023-12-07T04:44:05;32.65;;;9.70;;
81180;SDS011;70650;51.408;7.132;2023-12-07T04:46:30;30.47;;;9.23;;
81180;SDS011;70650;51.408;7.132;2023-12-07T04:48:56;35.40;;;9.57;;
81180;SDS011;70650;51.408;7.132;2023-12-07T04:51:21;26.93;;;9.57;;
81180;SDS011;70650;51.408;7.132;2023-12-07T04:53:46;29.03;;;9.50;;
81180;SDS011;70650;51.408;7.132;2023-12-07T04:56:12;31.23;;;9.10;;
81180;SDS011;70650;51.408;7.132;2023-12-07T04:58:37;26.83;;;8.80;;
81180;SDS011;70650;51.408;7.132;2023-12-07T05:01:02;29.30;;;9.90;;
81180;SDS011;70650;51.408;7.132;2023-12-07T05:03:28;27.92;;;9.15;;
81180;SDS011;70650;51.408;7.132;2023-12-07T05:05:57;25.55;;;9.05;;
81180;SDS011;70650;51.408;7.132;2023-12-07T05:08:23;24.02;;;7.53;;
81180;SDS011;70650;51.408;7.132;2023-12-07T05:10:48;27.58;;;9.32;;
81180;SDS011;70650;51.408;7.132;2023-12-07T05:13:13;27.00;;;10.00;;
81180;SDS011;70650;51.408;7.132;2023-12-07T05:15:39;26.23;;;8.63;;
81180;SDS011;70650;51.408;7.132;2023-12-07T05:18:04;28.80;;;9.35;;
81180;SDS011;70650;51.408;7.132;2023-12-07T05:20:29;28.10;;;9.82;;
81180;SDS011;70650;51.408;7.132;2023-12-07T05:22:55;29.35;;;9.43;;
81180;SDS011;70650;51.408;7.132;2023-12-07T05:25:22;28.40;;;9.10;;
81180;SDS011;70650;51.408;7.132;2023-12-07T05:27:48;28.42;;;8.95;;
81180;SDS011;70650;51.408;7.132;2023-12-07T05:30:13;28.80;;;8.82;;
81180;SDS011;70650;51.408;7.132;2023-12-07T05:32:39;27.30;;;10.00;;
81180;SDS011;70650;51.408;7.132;2023-12-07T05:35:05;26.37;;;9.27;;
81180;SDS011;70650;51.408;7.132;2023-12-07T05:37:31;27.10;;;9.50;;
81180;SDS011;70650;51.408;7.132;2023-12-07T05:39:57;28.63;;;10.13;;
81180;SDS011;70650;51.408;7.132;2023-12-07T05:42:22;31.10;;;10.33;;
81180;SDS011;70650;51.408;7.132;2023-12-07T05:44:47;29.17;;;9.23;;
81180;SDS011;70650;51.408;7.132;2023-12-07T05:47:12;27.70;;;8.87;;
81180;SDS011;70650;51.408;7.132;2023-12-07T05:49:38;26.27;;;9.20;;
81180;SDS011;70650;51.408;7.132;2023-12-07T05:52:03;31.70;;;10.00;;
81180;SDS011;70650;51.408;7.132;2023-12-07T05:54:31;28.02;;;9.15;;
81180;SDS011;70650;51.408;7.132;2023-12-07T05:56:59;26.27;;;8.90;;
81180;SDS011;70650;51.408;7.132;2023-12-07T05:59:24;29.02;;;10.05;;
81180;SDS011;70650;51.408;7.132;2023-12-07T06:01:53;28.63;;;9.33;;
81180;SDS011;70650;51.408;7.132;2023-12-07T06:04:18;24.30;;;8.60;;
81180;SDS011;70650;51.408;7.132;2023-12-07T06:06:44;26.38;;;9.00;;
81180;SDS011;70650;51.408;7.132;2023-12-07T06:09:10;26.42;;;8.88;;
81180;SDS011;70650;51.408;7.132;2023-12-07T06:11:36;23.88;;;8.63;;
81180;SDS011;70650;51.408;7.132;2023-12-07T06:14:01;23.50;;;7.60;;
81180;SDS011;70650;51.408;7.132;2023-12-07T06:16:27;23.65;;;8.25;;
81180;SDS011;70650;51.408;7.132;2023-12-07T06:18:53;25.90;;;8.53;;
81180;SDS011;70650;51.408;7.132;2023-12-07T06:21:18;21.03;;;8.10;;
81180;SDS011;70650;51.408;7.132;2023-12-07T06:23:43;25.50;;;9.27;;
81180;SDS011;70650;51.408;7.132;2023-12-07T06:26:11;27.23;;;8.93;;
81180;SDS011;70650;51.408;7.132;2023-12-07T06:28:38;23.70;;;8.18;;
81180;SDS011;70650;51.408;7.132;2023-12-07T06:31:06;22.25;;;8.35;;
81180;SDS011;70650;51.408;7.132;2023-12-07T06:33:32;22.13;;;7.95;;
81180;SDS011;70650;51.408;7.132;2023-12-07T06:35:57;25.23;;;8.50;;
81180;SDS011;70650;51.408;7.132;2023-12-07T06:38:23;28.35;;;8.15;;
81180;SDS011;70650;51.408;7.132;2023-12-07T06:40:48;23.53;;;7.43;;
81180;SDS011;70650;51.408;7.132;2023-12-07T06:43:13;23.20;;;8.40;;
81180;SDS011;70650;51.408;7.132;2023-12-07T06:45:39;26.03;;;8.77;;
81180;SDS011;70650;51.408;7.132;2023-12-07T06:48:05;22.88;;;7.22;;
81180;SDS011;70650;51.408;7.132;2023-12-07T06:50:30;23.92;;;8.52;;
81180;SDS011;70650;51.408;7.132;2023-12-07T06:52:55;24.27;;;8.63;;
81180;SDS011;70650;51.408;7.132;2023-12-07T06:55:21;24.63;;;7.90;;
81180;SDS011;70650;51.408;7.132;2023-12-07T06:57:47;23.38;;;8.20;;
81180;SDS011;70650;51.408;7.132;2023-12-07T07:00:13;24.10;;;8.63;;
81180;SDS011;70650;51.408;7.132;2023-12-07T07:02:40;19.70;;;6.90;;
81180;SDS011;70650;51.408;7.132;2023-12-07T07:05:05;19.30;;;7.05;;
81180;SDS011;70650;51.408;7.132;2023-12-07T07:07:31;22.85;;;8.07;;
81180;SDS011;70650;51.408;7.132;2023-12-07T07:09:58;23.30;;;8.82;;
81180;SDS011;70650;51.408;7.132;2023-12-07T07:12:24;22.40;;;7.60;;
81180;SDS011;70650;51.408;7.132;2023-12-07T07:14:49;22.17;;;7.82;;
81180;SDS011;70650;51.408;7.132;2023-12-07T07:17:14;21.70;;;7.87;;
81180;SDS011;70650;51.408;7.132;2023-12-07T07:19:40;22.98;;;7.68;;
81180;SDS011;70650;51.408;7.132;2023-12-07T07:22:07;22.08;;;7.78;;
81180;SDS011;70650;51.408;7.132;2023-12-07T07:24:34;22.67;;;7.22;;
81180;SDS011;70650;51.408;7.132;2023-12-07T07:26:59;20.40;;;8.00;;
81180;SDS011;70650;51.408;7.132;2023-12-07T07:29:26;25.25;;;8.73;;
81180;SDS011;70650;51.408;7.132;2023-12-07T07:31:52;22.23;;;7.93;;
81180;SDS011;70650;51.408;7.132;2023-12-07T07:34:18;24.63;;;8.97;;
81180;SDS011;70650;51.408;7.132;2023-12-07T07:36:43;26.20;;;8.27;;
81180;SDS011;70650;51.408;7.132;2023-12-07T07:39:08;24.38;;;7.95;;
81180;SDS011;70650;51.408;7.132;2023-12-07T07:41:35;26.00;;;8.90;;
81180;SDS011;70650;51.408;7.132;2023-12-07T07:44:02;21.00;;;7.47;;
81180;SDS011;70650;51.408;7.132;2023-12-07T07:46:27;25.60;;;7.97;;
81180;SDS011;70650;51.408;7.132;2023-12-07T07:48:53;27.30;;;9.32;;
81180;SDS011;70650;51.408;7.132;2023-12-07T07:51:18;25.05;;;8.77;;
81180;SDS011;70650;51.408;7.132;2023-12-07T07:53:43;26.90;;;8.77;;
81180;SDS011;70650;51.408;7.132;2023-12-07T07:56:09;20.97;;;7.20;;
81180;SDS011;70650;51.408;7.132;2023-12-07T07:58:34;27.63;;;9.18;;
81180;SDS011;70650;51.408;7.132;2023-12-07T08:01:00;25.73;;;8.18;;
81180;SDS011;70650;51.408;7.132;2023-12-07T08:03:26;24.75;;;8.90;;
81180;SDS011;70650;51.408;7.132;2023-12-07T08:05:51;26.77;;;9.60;;
81180;SDS011;70650;51.408;7.132;2023-12-07T08:08:17;26.03;;;8.73;;
81180;SDS011;70650;51.408;7.132;2023-12-07T08:10:42;25.00;;;8.27;;
81180;SDS011;70650;51.408;7.132;2023-12-07T08:13:07;25.13;;;8.90;;
81180;SDS011;70650;51.408;7.132;2023-12-07T08:15:34;25.45;;;8.90;;
81180;SDS011;70650;51.408;7.132;2023-12-07T08:18:00;26.65;;;8.80;;
81180;SDS011;70650;51.408;7.132;2023-12-07T08:20:25;24.75;;;8.93;;
81180;SDS011;70650;51.408;7.132;2023-12-07T08:22:51;25.13;;;9.05;;
81180;SDS011;70650;51.408;7.132;2023-12-07T08:25:16;22.33;;;8.55;;
81180;SDS011;70650;51.408;7.132;2023-12-07T08:27:42;29.48;;;10.15;;
81180;SDS011;70650;51.408;7.132;2023-12-07T08:30:10;26.20;;;9.00;;
81180;SDS011;70650;51.408;7.132;2023-12-07T08:32:35;25.80;;;9.43;;
81180;SDS011;70650;51.408;7.132;2023-12-07T08:35:02;31.00;;;9.88;;
81180;SDS011;70650;51.408;7.132;2023-12-07T08:37:27;26.77;;;9.23;;
81180;SDS011;70650;51.408;7.132;2023-12-07T08:39:53;28.05;;;10.10;;
81180;SDS011;70650;51.408;7.132;2023-12-07T08:42:19;30.88;;;10.00;;
81180;SDS011;70650;51.408;7.132;2023-12-07T08:44:44;28.30;;;9.00;;
81180;SDS011;70650;51.408;7.132;2023-12-07T08:47:09;30.20;;;10.63;;
81180;SDS011;70650;51.408;7.132;2023-12-07T08:49:35;30.60;;;9.85;;
81180;SDS011;70650;51.408;7.132;2023-12-07T08:52:00;24.58;;;9.07;;
81180;SDS011;70650;51.408;7.132;2023-12-07T08:54:26;26.40;;;8.97;;
81180;SDS011;70650;51.408;7.132;2023-12-07T08:56:52;25.30;;;10.00;;
81180;SDS011;70650;51.408;7.132;2023-12-07T08:59:17;32.72;;;9.95;;
81180;SDS011;70650;51.408;7.132;2023-12-07T09:01:43;23.97;;;9.90;;
81180;SDS011;70650;51.408;7.132;2023-12-07T09:04:08;26.80;;;10.05;;
81180;SDS011;70650;51.408;7.132;2023-12-07T09:06:34;31.83;;;10.60;;
81180;SDS011;70650;51.408;7.132;2023-12-07T09:09:01;25.65;;;9.20;;
81180;SDS011;70650;51.408;7.132;2023-12-07T09:11:29;30.42;;;10.40;;
81180;SDS011;70650;51.408;7.132;2023-12-07T09:13:54;30.17;;;10.00;;
81180;SDS011;70650;51.408;7.132;2023-12-07T09:16:20;25.70;;;9.70;;
81180;SDS011;70650;51.408;7.132;2023-12-07T09:18:46;25.20;;;8.90;;
81180;SDS011;70650;51.408;7.132;2023-12-07T09:21:11;24.20;;;8.70;;
81180;SDS011;70650;51.408;7.132;2023-12-07T09:23:37;25.70;;;9.00;;
81180;SDS011;70650;51.408;7.132;2023-12-07T09:26:04;23.23;;;8.25;;
81180;SDS011;70650;51.408;7.132;2023-12-07T09:28:29;22.42;;;8.07;;
81180;SDS011;70650;51.408;7.132;2023-12-07T09:30:56;26.67;;;8.23;;
81180;SDS011;70650;51.408;7.132;2023-12-07T09:33:21;24.27;;;8.80;;
81180;SDS011;70650;51.408;7.132;2023-12-07T09:35:48;23.67;;;7.40;;
81180;SDS011;70650;51.408;7.132;2023-12-07T09:38:14;20.05;;;7.38;;
81180;SDS011;70650;51.408;7.132;2023-12-07T09:40:39;19.00;;;7.55;;
81180;SDS011;70650;51.408;7.132;2023-12-07T09:43:05;21.20;;;6.97;;
81180;SDS011;70650;51.408;7.132;2023-12-07T09:45:30;17.08;;;6.75;;
81180;SDS011;70650;51.408;7.132;2023-12-07T09:47:56;18.85;;;7.20;;
81180;SDS011;70650;51.408;7.132;2023-12-07T09:50:26;17.58;;;6.80;;
81180;SDS011;70650;51.408;7.132;2023-12-07T09:52:56;17.15;;;6.53;;
81180;SDS011;70650;51.408;7.132;2023-12-07T09:55:22;15.80;;;6.40;;
81180;SDS011;70650;51.408;7.132;2023-12-07T09:57:54;16.33;;;6.55;;
81180;SDS011;70650;51.408;7.132;2023-12-07T10:00:22;18.55;;;6.53;;
81180;SDS011;70650;51.408;7.132;2023-12-07T10:02:48;19.60;;;6.87;;
81180;SDS011;70650;51.408;7.132;2023-12-07T10:05:14;17.08;;;6.30;;
81180;SDS011;70650;51.408;7.132;2023-12-07T10:07:41;15.45;;;6.10;;
81180;SDS011;70650;51.408;7.132;2023-12-07T10:10:14;18.40;;;6.65;;
81180;SDS011;70650;51.408;7.132;2023-12-07T10:13:01;15.38;;;6.18;;
81180;SDS011;70650;51.408;7.132;2023-12-07T10:15:26;14.10;;;5.72;;
81180;SDS011;70650;51.408;7.132;2023-12-07T10:17:54;15.02;;;5.72;;
81180;SDS011;70650;51.408;7.132;2023-12-07T10:20:24;14.68;;;5.95;;
81180;SDS011;70650;51.408;7.132;2023-12-07T10:23:11;15.88;;;6.22;;
81180;SDS011;70650;51.408;7.132;2023-12-07T10:25:40;14.43;;;5.63;;
81180;SDS011;70650;51.408;7.132;2023-12-07T10:28:07;15.55;;;5.70;;
81180;SDS011;70650;51.408;7.132;2023-12-07T10:30:36;14.95;;;5.47;;
81180;SDS011;70650;51.408;7.132;2023-12-07T10:33:03;13.07;;;5.03;;
81180;SDS011;70650;51.408;7.132;2023-12-07T10:35:29;13.18;;;5.00;;
81180;SDS011;70650;51.408;7.132;2023-12-07T10:37:54;13.47;;;4.90;;
81180;SDS011;70650;51.408;7.132;2023-12-07T10:40:20;13.52;;;5.53;;
81180;SDS011;70650;51.408;7.132;2023-12-07T10:42:47;13.32;;;5.28;;
81180;SDS011;70650;51.408;7.132;2023-12-07T10:45:13;13.32;;;4.65;;
81180;SDS011;70650;51.408;7.132;2023-12-07T10:47:40;14.80;;;4.95;;
81180;SDS011;70650;51.408;7.132;2023-12-07T10:50:09;13.40;;;5.05;;
81180;SDS011;70650;51.408;7.132;2023-12-07T10:52:55;13.30;;;5.05;;
81180;SDS011;70650;51.408;7.132;2023-12-07T10:55:28;12.90;;;5.20;;
81180;SDS011;70650;51.408;7.132;2023-12-07T10:57:55;13.02;;;4.97;;
81180;SDS011;70650;51.408;7.132;2023-12-07T11:00:24;15.73;;;4.63;;
81180;SDS011;70650;51.408;7.132;2023-12-07T11:02:53;12.85;;;4.90;;
81180;SDS011;70650;51.408;7.132;2023-12-07T11:05:18;14.32;;;4.70;;
81180;SDS011;70650;51.408;7.132;2023-12-07T11:07:50;12.07;;;4.25;;
81180;SDS011;70650;51.408;7.132;2023-12-07T11:10:25;12.77;;;4.45;;
81180;SDS011;70650;51.408;7.132;2023-12-07T11:15:49;10.27;;;4.25;;
81180;SDS011;70650;51.408;7.132;2023-12-07T11:18:15;11.60;;;4.55;;
81180;SDS011;70650;51.408;7.132;2023-12-07T11:20:41;12.20;;;4.20;;
81180;SDS011;70650;51.408;7.132;2023-12-07T11:23:09;11.40;;;4.57;;
81180;SDS011;70650;51.408;7.132;2023-12-07T11:25:35;11.88;;;4.65;;
81180;SDS011;70650;51.408;7.132;2023-12-07T11:28:05;13.57;;;5.13;;
81180;SDS011;70650;51.408;7.132;2023-12-07T11:30:32;11.55;;;4.53;;
81180;SDS011;70650;51.408;7.132;2023-12-07T11:33:00;11.82;;;4.95;;
81180;SDS011;70650;51.408;7.132;2023-12-07T11:35:28;13.10;;;4.80;;
81180;SDS011;70650;51.408;7.132;2023-12-07T11:38:03;11.55;;;4.82;;
81180;SDS011;70650;51.408;7.132;2023-12-07T11:40:45;10.95;;;4.45;;
81180;SDS011;70650;51.408;7.132;2023-12-07T11:43:17;11.38;;;4.47;;
81180;SDS011;70650;51.408;7.132;2023-12-07T11:46:04;12.75;;;4.63;;
81180;SDS011;70650;51.408;7.132;2023-12-07T11:48:30;10.40;;;4.30;;
81180;SDS011;70650;51.408;7.132;2023-12-07T11:53:23;11.80;;;4.45;;
81180;SDS011;70650;51.408;7.132;2023-12-07T11:55:50;11.93;;;4.95;;
81180;SDS011;70650;51.408;7.132;2023-12-07T11:58:17;11.73;;;4.70;;
81180;SDS011;70650;51.408;7.132;2023-12-07T12:00:43;10.20;;;4.25;;
81180;SDS011;70650;51.408;7.132;2023-12-07T12:03:13;11.63;;;4.65;;
81180;SDS011;70650;51.408;7.132;2023-12-07T12:05:38;11.57;;;4.82;;
81180;SDS011;70650;51.408;7.132;2023-12-07T12:08:05;11.10;;;4.47;;
81180;SDS011;70650;51.408;7.132;2023-12-07T12:10:31;12.57;;;4.75;;
81180;SDS011;70650;51.408;7.132;2023-12-07T12:12:56;11.50;;;4.50;;
81180;SDS011;70650;51.408;7.132;2023-12-07T12:15:22;11.73;;;4.67;;
81180;SDS011;70650;51.408;7.132;2023-12-07T12:17:47;11.52;;;4.68;;
81180;SDS011;70650;51.408;7.132;2023-12-07T12:20:13;11.20;;;3.90;;
81180;SDS011;70650;51.408;7.132;2023-12-07T12:22:42;12.15;;;4.47;;
81180;SDS011;70650;51.408;7.132;2023-12-07T12:25:08;12.15;;;4.50;;
81180;SDS011;70650;51.408;7.132;2023-12-07T12:27:33;11.68;;;4.85;;
81180;SDS011;70650;51.408;7.132;2023-12-07T12:29:59;10.50;;;4.18;;
81180;SDS011;70650;51.408;7.132;2023-12-07T12:32:25;11.73;;;3.70;;
81180;SDS011;70650;51.408;7.132;2023-12-07T12:34:51;11.67;;;4.20;;
81180;SDS011;70650;51.408;7.132;2023-12-07T12:37:17;8.93;;;3.95;;
81180;SDS011;70650;51.408;7.132;2023-12-07T12:39:42;9.30;;;3.90;;
81180;SDS011;70650;51.408;7.132;2023-12-07T12:42:08;10.30;;;4.30;;
81180;SDS011;70650;51.408;7.132;2023-12-07T12:44:36;11.68;;;4.00;;
81180;SDS011;70650;51.408;7.132;2023-12-07T12:47:05;11.48;;;4.38;;
81180;SDS011;70650;51.408;7.132;2023-12-07T12:49:34;11.75;;;3.97;;
81180;SDS011;70650;51.408;7.132;2023-12-07T12:52:01;11.70;;;4.15;;
81180;SDS011;70650;51.408;7.132;2023-12-07T12:54:32;11.23;;;4.33;;
81180;SDS011;70650;51.408;7.132;2023-12-07T12:57:01;10.90;;;4.38;;
81180;SDS011;70650;51.408;7.132;2023-12-07T12:59:26;11.40;;;4.55;;
81180;SDS011;70650;51.408;7.132;2023-12-07T13:01:52;10.32;;;3.35;;
81180;SDS011;70650;51.408;7.132;2023-12-07T13:04:17;9.43;;;3.63;;
81180;SDS011;70650;51.408;7.132;2023-12-07T13:06:42;9.63;;;3.80;;
81180;SDS011;70650;51.408;7.132;2023-12-07T13:09:09;10.68;;;3.83;;
81180;SDS011;70650;51.408;7.132;2023-12-07T13:11:35;11.10;;;4.23;;
81180;SDS011;70650;51.408;7.132;2023-12-07T13:14:01;10.52;;;4.07;;
81180;SDS011;70650;51.408;7.132;2023-12-07T13:16:31;10.02;;;3.60;;
81180;SDS011;70650;51.408;7.132;2023-12-07T13:18:58;11.50;;;3.88;;
81180;SDS011;70650;51.408;7.132;2023-12-07T13:21:23;10.03;;;4.10;;
81180;SDS011;70650;51.408;7.132;2023-12-07T13:23:48;9.50;;;4.05;;
81180;SDS011;70650;51.408;7.132;2023-12-07T13:26:14;11.17;;;3.90;;
81180;SDS011;70650;51.408;7.132;2023-12-07T13:28:39;13.07;;;4.00;;
81180;SDS011;70650;51.408;7.132;2023-12-07T13:31:05;10.07;;;4.28;;
81180;SDS011;70650;51.408;7.132;2023-12-07T13:33:31;8.75;;;3.33;;
81180;SDS011;70650;51.408;7.132;2023-12-07T13:35:56;10.47;;;3.77;;
81180;SDS011;70650;51.408;7.132;2023-12-07T13:38:23;10.90;;;3.97;;
81180;SDS011;70650;51.408;7.132;2023-12-07T13:40:49;10.77;;;3.95;;
81180;SDS011;70650;51.408;7.132;2023-12-07T13:43:14;9.57;;;3.72;;
81180;SDS011;70650;51.408;7.132;2023-12-07T13:45:40;12.45;;;4.05;;
81180;SDS011;70650;51.408;7.132;2023-12-07T13:48:07;9.80;;;3.95;;
81180;SDS011;70650;51.408;7.132;2023-12-07T13:50:33;10.93;;;3.95;;
81180;SDS011;70650;51.408;7.132;2023-12-07T13:52:59;11.23;;;4.00;;
81180;SDS011;70650;51.408;7.132;2023-12-07T13:55:24;12.27;;;4.23;;
81180;SDS011;70650;51.408;7.132;2023-12-07T13:57:50;8.97;;;3.23;;
81180;SDS011;70650;51.408;7.132;2023-12-07T14:00:17;11.60;;;3.83;;
81180;SDS011;70650;51.408;7.132;2023-12-07T14:02:43;11.32;;;4.55;;
81180;SDS011;70650;51.408;7.132;2023-12-07T14:05:08;10.03;;;3.70;;
81180;SDS011;70650;51.408;7.132;2023-12-07T14:07:33;11.98;;;4.10;;
81180;SDS011;70650;51.408;7.132;2023-12-07T14:09:59;13.93;;;4.43;;
81180;SDS011;70650;51.408;7.132;2023-12-07T14:12:25;9.55;;;3.92;;
81180;SDS011;70650;51.408;7.132;2023-12-07T14:14:51;9.25;;;3.75;;
81180;SDS011;70650;51.408;7.132;2023-12-07T14:17:16;10.23;;;3.80;;
81180;SDS011;70650;51.408;7.132;2023-12-07T14:19:46;10.48;;;4.07;;
81180;SDS011;70650;51.408;7.132;2023-12-07T14:22:13;10.63;;;3.72;;
81180;SDS011;70650;51.408;7.132;2023-12-07T14:24:38;10.20;;;3.67;;
81180;SDS011;70650;51.408;7.132;2023-12-07T14:27:04;11.63;;;4.27;;
81180;SDS011;70650;51.408;7.132;2023-12-07T14:29:31;10.70;;;4.10;;
81180;SDS011;70650;51.408;7.132;2023-12-07T14:31:57;12.48;;;4.10;;
81180;SDS011;70650;51.408;7.132;2023-12-07T14:34:23;10.45;;;3.95;;